createdAt,value
2018-06-17T00:00:50.401Z,20.13
2018-06-17T00:03:18.436Z,20.09
2018-06-17T00:05:46.513Z,20.08
2018-06-17T00:08:14.556Z,20.07
2018-06-17T00:10:42.608Z,20.06
2018-06-17T00:13:10.652Z,20.06
2018-06-17T00:15:38.720Z,20.04
2018-06-17T00:18:06.748Z,20.04
2018-06-17T00:20:34.992Z,20.03
2018-06-17T00:23:03.034Z,20.02
2018-06-17T00:25:31.099Z,20.00
2018-06-17T00:27:59.149Z,20.00
2018-06-17T00:30:27.233Z,20.00
2018-06-17T00:32:55.289Z,20.01
2018-06-17T00:35:23.336Z,20.01
2018-06-17T00:37:51.453Z,20.01
2018-06-17T00:40:19.520Z,20.00
2018-06-17T00:42:47.600Z,19.98
2018-06-17T00:45:15.640Z,19.97
2018-06-17T00:47:43.700Z,19.95
2018-06-17T00:50:11.751Z,19.92
2018-06-17T00:52:39.804Z,19.88
2018-06-17T00:55:07.848Z,19.87
2018-06-17T00:57:48.236Z,19.83
2018-06-17T01:00:16.307Z,19.81
2018-06-17T01:02:44.783Z,19.78
2018-06-17T01:05:12.900Z,19.74
2018-06-17T01:07:41.088Z,19.70
2018-06-17T01:10:09.269Z,19.68
2018-06-17T01:12:37.561Z,19.65
2018-06-17T01:15:05.980Z,19.64
2018-06-17T01:17:34.044Z,19.60
2018-06-17T01:20:02.084Z,19.59
2018-06-17T01:22:30.139Z,19.58
2018-06-17T01:24:58.184Z,19.56
2018-06-17T01:27:26.273Z,19.54
2018-06-17T01:29:54.305Z,19.53
2018-06-17T01:32:22.367Z,19.53
2018-06-17T01:34:50.609Z,19.52
2018-06-17T01:37:18.648Z,19.50
2018-06-17T01:39:46.689Z,19.49
2018-06-17T01:42:14.733Z,19.52
2018-06-17T01:44:42.768Z,19.53
2018-06-17T01:47:10.817Z,19.55
2018-06-17T01:49:38.861Z,19.54
2018-06-17T01:52:06.908Z,19.52
2018-06-17T01:54:34.938Z,19.47
2018-06-17T01:57:02.996Z,19.43
2018-06-17T01:59:31.039Z,19.41
2018-06-17T02:01:59.084Z,19.37
2018-06-17T02:04:32.446Z,19.36
2018-06-17T02:07:05.792Z,19.35
2018-06-17T02:09:39.252Z,19.34
2018-06-17T02:12:12.927Z,19.34
2018-06-17T02:14:46.308Z,19.32
2018-06-17T02:17:14.413Z,19.31
2018-06-17T02:19:42.448Z,19.28
2018-06-17T02:22:10.493Z,19.26
2018-06-17T02:24:38.535Z,19.25
2018-06-17T02:27:06.732Z,19.23
2018-06-17T02:29:34.796Z,19.24
2018-06-17T02:32:02.856Z,19.23
2018-06-17T02:34:30.897Z,19.22
2018-06-17T02:36:58.948Z,19.19
2018-06-17T02:39:26.980Z,19.18
2018-06-17T02:41:55.024Z,19.17
2018-06-17T02:44:23.056Z,19.17
2018-06-17T02:46:56.452Z,19.17
2018-06-17T02:49:29.852Z,19.18
2018-06-17T02:52:03.343Z,19.18
2018-06-17T02:54:36.865Z,19.13
2018-06-17T02:57:05.108Z,19.08
2018-06-17T02:59:33.184Z,19.05
2018-06-17T03:02:01.475Z,19.05
2018-06-17T03:04:29.615Z,19.03
2018-06-17T03:06:57.687Z,19.00
2018-06-17T03:09:25.899Z,18.99
2018-06-17T03:11:53.985Z,18.97
2018-06-17T03:14:22.043Z,18.95
2018-06-17T03:16:50.079Z,18.95
2018-06-17T03:19:18.136Z,18.94
2018-06-17T03:21:46.191Z,18.93
2018-06-17T03:24:14.245Z,18.90
2018-06-17T03:26:47.792Z,18.89
2018-06-17T03:29:21.388Z,18.92
2018-06-17T03:31:54.807Z,18.93
2018-06-17T03:34:22.856Z,18.92
2018-06-17T03:36:50.884Z,18.92
2018-06-17T03:39:18.935Z,18.92
2018-06-17T03:41:46.992Z,18.93
2018-06-17T03:44:15.048Z,18.93
2018-06-17T03:46:43.076Z,18.93
2018-06-17T03:49:11.116Z,18.91
2018-06-17T03:51:39.169Z,18.91
2018-06-17T03:54:07.320Z,18.89
2018-06-17T03:56:35.436Z,18.89
2018-06-17T03:59:03.479Z,18.89
2018-06-17T04:01:31.516Z,18.86
2018-06-17T04:03:59.580Z,18.81
2018-06-17T04:06:27.607Z,18.78
2018-06-17T04:08:55.664Z,18.77
2018-06-17T04:11:23.731Z,18.74
2018-06-17T04:13:51.775Z,18.73
2018-06-17T04:16:19.820Z,18.69
2018-06-17T04:18:47.872Z,18.69
2018-06-17T04:21:16.001Z,18.69
2018-06-17T04:23:44.047Z,18.68
2018-06-17T04:26:12.121Z,18.68
2018-06-17T04:28:40.196Z,18.67
2018-06-17T04:31:08.252Z,18.69
2018-06-17T04:33:36.362Z,18.68
2018-06-17T04:36:04.405Z,18.68
2018-06-17T04:38:32.472Z,18.69
2018-06-17T04:41:00.514Z,18.69
2018-06-17T04:43:28.569Z,18.71
2018-06-17T04:45:56.651Z,18.73
2018-06-17T04:48:24.712Z,18.74
2018-06-17T04:50:52.756Z,18.77
2018-06-17T04:53:20.938Z,18.78
2018-06-17T04:55:49.001Z,18.81
2018-06-17T04:58:17.040Z,18.85
2018-06-17T05:00:45.105Z,18.86
2018-06-17T05:03:13.160Z,18.89
2018-06-17T05:05:41.228Z,18.92
2018-06-17T05:08:09.292Z,18.91
2018-06-17T05:10:37.424Z,18.95
2018-06-17T05:13:05.501Z,18.99
2018-06-17T05:15:33.597Z,19.03
2018-06-17T05:18:01.646Z,19.10
2018-06-17T05:20:29.712Z,19.22
2018-06-17T05:22:57.780Z,19.29
2018-06-17T05:25:25.844Z,19.33
2018-06-17T05:27:53.871Z,19.34
2018-06-17T05:30:21.944Z,19.33
2018-06-17T05:32:49.987Z,19.33
2018-06-17T05:35:18.089Z,19.33
2018-06-17T05:37:46.140Z,19.32
2018-06-17T05:40:14.205Z,19.32
2018-06-17T05:42:42.264Z,19.38
2018-06-17T05:45:10.324Z,19.42
2018-06-17T05:47:38.449Z,19.49
2018-06-17T05:50:06.455Z,19.48
2018-06-17T05:52:34.497Z,19.47
2018-06-17T05:55:02.569Z,19.47
2018-06-17T05:57:30.625Z,19.37
2018-06-17T05:59:58.676Z,19.29
2018-06-17T06:02:26.753Z,19.25
2018-06-17T06:04:54.834Z,19.20
2018-06-17T06:07:29.605Z,19.20
2018-06-17T06:09:57.680Z,19.42
2018-06-17T06:12:25.819Z,19.60
2018-06-17T06:14:53.886Z,19.66
2018-06-17T06:17:21.930Z,19.69
2018-06-17T06:19:49.984Z,19.63
2018-06-17T06:22:18.030Z,19.62
2018-06-17T06:24:46.172Z,19.66
2018-06-17T06:27:14.174Z,19.73
2018-06-17T06:29:42.236Z,19.77
2018-06-17T06:32:10.304Z,19.74
2018-06-17T06:34:38.352Z,19.76
2018-06-17T06:37:06.448Z,19.78
2018-06-17T06:39:34.496Z,19.77
2018-06-17T06:42:02.585Z,19.72
2018-06-17T06:44:30.639Z,19.69
2018-06-17T06:46:58.696Z,19.72
2018-06-17T06:49:26.748Z,19.76
2018-06-17T06:51:54.800Z,19.79
2018-06-17T06:54:22.852Z,19.82
2018-06-17T06:56:50.908Z,19.96
2018-06-17T06:59:18.972Z,20.06
2018-06-17T07:01:58.397Z,20.23
2018-06-17T07:04:37.804Z,20.50
2018-06-17T07:07:17.392Z,20.55
2018-06-17T07:09:56.827Z,20.58
2018-06-17T07:12:24.875Z,20.61
2018-06-17T07:14:59.795Z,20.72
2018-06-17T07:17:39.629Z,20.89
2018-06-17T07:20:10.798Z,21.02
2018-06-17T07:22:40.991Z,21.03
2018-06-17T07:25:12.747Z,21.06
2018-06-17T07:28:27.312Z,21.14
2018-06-17T07:30:55.403Z,21.17
2018-06-17T07:33:25.728Z,21.26
2018-06-17T07:35:53.780Z,21.36
2018-06-17T07:38:23.864Z,21.51
2018-06-17T07:40:55.436Z,21.49
2018-06-17T07:43:23.525Z,21.40
2018-06-17T07:45:53.817Z,21.20
2018-06-17T07:49:54.675Z,20.95
2018-06-17T07:52:35.356Z,20.79
2018-06-17T07:55:03.449Z,20.98
2018-06-17T07:57:32.728Z,21.38
2018-06-17T08:00:00.792Z,21.68
2018-06-17T08:02:29.130Z,21.81
2018-06-17T08:04:57.204Z,21.80
2018-06-17T08:07:25.459Z,21.93
2018-06-17T08:09:53.512Z,22.00
2018-06-17T08:12:21.608Z,22.28
2018-06-17T08:14:49.684Z,22.40
2018-06-17T08:17:17.785Z,22.68
2018-06-17T08:19:45.860Z,22.87
2018-06-17T08:22:13.928Z,22.95
2018-06-17T08:24:42.001Z,22.92
2018-06-17T08:27:10.061Z,22.90
2018-06-17T08:29:38.162Z,22.81
2018-06-17T08:32:06.219Z,22.78
2018-06-17T08:34:34.288Z,22.97
2018-06-17T08:37:02.367Z,22.97
2018-06-17T08:39:30.533Z,23.08
2018-06-17T08:41:58.660Z,23.41
2018-06-17T08:44:26.805Z,23.64
2018-06-17T08:46:55.278Z,23.72
2018-06-17T08:49:23.433Z,23.85
2018-06-17T08:51:51.501Z,24.23
2018-06-17T08:54:19.775Z,24.56
2018-06-17T08:56:47.800Z,24.39
2018-06-17T08:59:15.897Z,24.31
2018-06-17T09:01:55.015Z,24.71
2018-06-17T09:04:23.113Z,25.04
2018-06-17T09:06:51.196Z,24.88
2018-06-17T09:09:19.280Z,24.90
2018-06-17T09:11:47.356Z,24.80
2018-06-17T09:14:15.417Z,24.70
2018-06-17T09:16:43.516Z,24.56
2018-06-17T09:19:12.421Z,24.40
2018-06-17T09:21:40.492Z,24.75
2018-06-17T09:24:08.815Z,24.79
2018-06-17T09:26:36.898Z,24.65
2018-06-17T09:29:04.973Z,24.72
2018-06-17T09:31:33.058Z,25.20
2018-06-17T09:34:01.140Z,25.61
2018-06-17T09:36:29.293Z,25.96
2018-06-17T09:38:57.405Z,26.36
2018-06-17T09:41:25.515Z,26.60
2018-06-17T09:43:53.646Z,26.26
2018-06-17T09:46:21.714Z,26.13
2018-06-17T09:48:49.800Z,26.32
2018-06-17T09:51:17.906Z,26.55
2018-06-17T09:53:45.959Z,26.86
2018-06-17T09:56:14.016Z,26.93
2018-06-17T09:58:42.064Z,27.12
2018-06-17T10:01:10.124Z,27.22
2018-06-17T10:03:38.189Z,27.43
2018-06-17T10:06:06.228Z,27.56
2018-06-17T10:08:34.285Z,27.26
2018-06-17T10:11:04.264Z,27.03
2018-06-17T10:13:34.580Z,26.92
2018-06-17T10:16:02.710Z,26.91
2018-06-17T10:18:31.032Z,26.77
2018-06-17T10:20:59.094Z,27.08
2018-06-17T10:23:27.143Z,27.16
2018-06-17T10:25:55.213Z,27.35
2018-06-17T10:28:24.534Z,27.25
2018-06-17T10:30:53.445Z,27.31
2018-06-17T10:33:21.706Z,27.54
2018-06-17T10:35:49.759Z,27.56
2018-06-17T10:38:17.848Z,27.74
2018-06-17T10:40:46.111Z,28.05
2018-06-17T10:43:18.487Z,27.93
2018-06-17T10:45:46.561Z,27.79
2018-06-17T10:48:14.967Z,28.00
2018-06-17T10:50:43.049Z,28.17
2018-06-17T10:53:11.114Z,28.28
2018-06-17T10:55:39.256Z,28.40
2018-06-17T10:58:07.212Z,28.54
2018-06-17T11:00:35.265Z,28.81
2018-06-17T11:03:03.356Z,29.01
2018-06-17T11:05:31.523Z,29.20
2018-06-17T11:07:59.564Z,29.09
2018-06-17T11:10:27.638Z,29.25
2018-06-17T11:12:55.739Z,29.41
2018-06-17T11:15:23.763Z,29.68
2018-06-17T11:17:51.808Z,29.76
2018-06-17T11:20:19.877Z,29.99
2018-06-17T11:22:47.928Z,29.96
2018-06-17T11:25:16.080Z,29.61
2018-06-17T11:27:44.128Z,29.12
2018-06-17T11:30:12.187Z,28.79
2018-06-17T11:32:40.264Z,28.37
2018-06-17T11:35:08.360Z,28.05
2018-06-17T11:37:36.417Z,27.79
2018-06-17T11:40:04.559Z,27.63
2018-06-17T11:42:32.613Z,27.73
2018-06-17T11:45:00.681Z,27.63
2018-06-17T11:47:28.733Z,27.47
2018-06-17T11:49:56.800Z,27.46
2018-06-17T11:52:24.845Z,27.71
2018-06-17T11:54:52.900Z,27.84
2018-06-17T11:57:20.955Z,28.02
2018-06-17T11:59:49.074Z,27.96
2018-06-17T12:02:17.111Z,27.87
2018-06-17T12:04:45.181Z,27.87
2018-06-17T12:07:13.239Z,28.22
2018-06-17T12:09:41.361Z,28.35
2018-06-17T12:12:09.357Z,28.35
2018-06-17T12:14:37.416Z,28.31
2018-06-17T12:17:05.465Z,28.39
2018-06-17T12:19:33.510Z,28.48
2018-06-17T12:22:01.569Z,28.64
2018-06-17T12:24:29.667Z,28.64
2018-06-17T12:26:57.736Z,28.49
2018-06-17T12:29:25.780Z,28.57
2018-06-17T12:31:53.843Z,28.40
2018-06-17T12:34:21.904Z,28.27
2018-06-17T12:36:49.971Z,28.11
2018-06-17T12:39:18.031Z,27.95
2018-06-17T12:41:46.083Z,27.70
2018-06-17T12:44:14.136Z,27.63
2018-06-17T12:46:42.194Z,27.49
2018-06-17T12:49:10.232Z,27.37
2018-06-17T12:51:38.296Z,27.30
2018-06-17T12:54:06.344Z,27.02
2018-06-17T12:56:34.383Z,26.94
2018-06-17T12:59:02.437Z,26.73
2018-06-17T13:01:30.480Z,26.60
2018-06-17T13:03:58.552Z,26.54
2018-06-17T13:06:26.618Z,26.49
2018-06-17T13:08:54.676Z,26.34
2018-06-17T13:11:22.812Z,26.21
2018-06-17T13:13:50.865Z,26.07
2018-06-17T13:16:18.941Z,26.13
2018-06-17T13:18:47.001Z,26.48
2018-06-17T13:21:15.121Z,26.78
2018-06-17T13:23:43.287Z,26.86
2018-06-17T13:26:11.388Z,26.97
2018-06-17T13:28:39.516Z,26.99
2018-06-17T13:31:07.698Z,27.01
2018-06-17T13:33:35.748Z,27.18
2018-06-17T13:36:03.799Z,27.43
2018-06-17T13:38:31.853Z,27.67
2018-06-17T13:40:59.959Z,27.64
2018-06-17T13:43:28.036Z,27.66
2018-06-17T13:45:56.115Z,27.55
2018-06-17T13:48:24.180Z,27.47
2018-06-17T13:50:52.234Z,27.36
2018-06-17T13:53:20.275Z,27.16
2018-06-17T13:55:48.365Z,27.02
2018-06-17T13:58:16.439Z,26.68
2018-06-17T14:00:44.507Z,26.37
2018-06-17T14:03:12.617Z,26.17
2018-06-17T14:05:40.682Z,26.02
2018-06-17T14:08:08.752Z,25.86
2018-06-17T14:10:36.954Z,25.71
2018-06-17T14:13:05.027Z,25.43
2018-06-17T14:15:33.124Z,25.25
2018-06-17T14:18:01.208Z,25.06
2018-06-17T14:20:29.278Z,24.83
2018-06-17T14:22:57.356Z,24.70
2018-06-17T14:25:25.405Z,24.60
2018-06-17T14:27:53.470Z,24.48
2018-06-17T14:30:21.522Z,24.46
2018-06-17T14:32:49.597Z,24.57
2018-06-17T14:35:17.641Z,24.76
2018-06-17T14:37:45.717Z,24.96
2018-06-17T14:40:13.774Z,25.09
2018-06-17T14:42:47.164Z,25.04
2018-06-17T14:45:20.583Z,24.85
2018-06-17T14:47:53.880Z,24.59
2018-06-17T14:50:27.356Z,24.37
2018-06-17T14:53:00.903Z,24.25
2018-06-17T14:55:28.944Z,24.12
2018-06-17T14:57:57.049Z,23.90
2018-06-17T15:00:25.156Z,23.82
2018-06-17T15:02:53.207Z,23.74
2018-06-17T15:05:21.253Z,23.63
2018-06-17T15:07:49.383Z,23.58
2018-06-17T15:10:17.433Z,23.53
2018-06-17T15:12:45.663Z,23.42
2018-06-17T15:15:14.105Z,23.35
2018-06-17T15:17:42.384Z,23.31
2018-06-17T15:20:12.812Z,23.21
2018-06-17T15:22:40.870Z,23.11
2018-06-17T15:25:10.856Z,23.15
2018-06-17T15:27:58.160Z,23.20
2018-06-17T15:30:26.956Z,23.28
2018-06-17T15:33:00.385Z,23.41
2018-06-17T15:35:38.545Z,23.44
2018-06-17T15:38:19.934Z,23.46
2018-06-17T15:40:54.494Z,23.51
2018-06-17T15:43:43.260Z,23.53
2018-06-17T15:49:09.016Z,23.33
2018-06-17T15:51:37.073Z,23.31
2018-06-17T15:54:05.552Z,23.18
2018-06-17T15:56:33.650Z,23.09
2018-06-17T15:59:06.202Z,23.01
2018-06-17T16:01:39.849Z,23.06
2018-06-17T16:04:12.372Z,23.08
2018-06-17T16:06:43.261Z,23.11
2018-06-17T16:09:15.531Z,23.15
2018-06-17T16:11:50.810Z,23.10
2018-06-17T16:14:38.801Z,23.05
2018-06-17T16:17:29.120Z,22.97
2018-06-17T16:20:09.797Z,22.92
2018-06-17T16:22:40.069Z,22.92
2018-06-17T16:25:10.686Z,22.90
2018-06-17T16:27:40.440Z,22.90
2018-06-17T16:30:11.651Z,22.91
2018-06-17T16:32:43.975Z,22.72
2018-06-17T16:35:13.696Z,22.60
2018-06-17T16:37:42.062Z,22.46
2018-06-17T16:40:13.670Z,22.32
2018-06-17T16:42:47.053Z,22.21
2018-06-17T16:45:15.218Z,22.16
2018-06-17T16:47:44.491Z,22.05
2018-06-17T16:50:15.043Z,22.00
2018-06-17T16:52:53.566Z,21.98
2018-06-17T16:55:27.254Z,22.01
2018-06-17T16:58:06.302Z,22.07
2018-06-17T17:00:34.366Z,22.10
2018-06-17T17:03:02.529Z,22.11
2018-06-17T17:05:30.582Z,22.20
2018-06-17T17:07:58.736Z,22.24
2018-06-17T17:10:31.246Z,22.20
2018-06-17T17:12:59.353Z,22.19
2018-06-17T17:15:27.416Z,22.20
2018-06-17T17:17:55.489Z,22.24
2018-06-17T17:20:23.556Z,22.21
2018-06-17T17:22:51.645Z,22.12
2018-06-17T17:25:19.700Z,22.01
2018-06-17T17:27:47.782Z,21.94
2018-06-17T17:30:15.847Z,21.84
2018-06-17T17:32:49.315Z,21.74
2018-06-17T17:35:22.810Z,21.72
2018-06-17T17:37:56.272Z,21.72
2018-06-17T17:40:29.935Z,21.74
2018-06-17T17:42:58.005Z,21.78
2018-06-17T17:45:31.458Z,21.83
2018-06-17T17:47:59.533Z,21.83
2018-06-17T17:50:27.625Z,21.81
2018-06-17T17:52:55.711Z,21.81
2018-06-17T17:55:23.806Z,21.81
2018-06-17T17:57:51.890Z,21.83
2018-06-17T18:00:19.964Z,21.77
2018-06-17T18:02:48.092Z,21.73
2018-06-17T18:05:16.148Z,21.73
2018-06-17T18:07:44.227Z,21.74
2018-06-17T18:10:12.296Z,21.71
2018-06-17T18:12:40.352Z,21.68
2018-06-17T18:15:08.481Z,21.68
2018-06-17T18:17:36.551Z,21.65
2018-06-17T18:20:04.672Z,21.61
2018-06-17T18:22:32.728Z,21.57
2018-06-17T18:25:06.233Z,21.57
2018-06-17T18:27:39.796Z,21.51
2018-06-17T18:30:13.384Z,21.47
2018-06-17T18:32:46.776Z,21.42
2018-06-17T18:35:20.280Z,21.43
2018-06-17T18:37:48.359Z,21.42
2018-06-17T18:40:16.397Z,21.40
2018-06-17T18:42:44.453Z,21.42
2018-06-17T18:45:12.492Z,21.41
2018-06-17T18:47:40.559Z,21.41
2018-06-17T18:50:08.603Z,21.38
2018-06-17T18:52:36.780Z,21.39
2018-06-17T18:55:04.826Z,21.38
2018-06-17T18:57:32.876Z,21.37
2018-06-17T19:00:00.928Z,21.35
2018-06-17T19:02:29.002Z,21.29
2018-06-17T19:04:57.099Z,21.28
2018-06-17T19:07:25.218Z,21.26
2018-06-17T19:10:01.286Z,21.21
2018-06-17T19:12:34.799Z,21.17
2018-06-17T19:15:08.308Z,21.13
2018-06-17T19:17:41.847Z,21.09
2018-06-17T19:20:28.370Z,21.04
2018-06-17T19:22:57.159Z,21.01
2018-06-17T19:25:26.700Z,20.96
2018-06-17T19:27:54.811Z,20.95
2018-06-17T19:30:24.943Z,20.90
2018-06-17T19:32:53.259Z,20.87
2018-06-17T19:35:21.324Z,20.84
2018-06-17T19:37:49.521Z,20.82
2018-06-17T19:40:17.590Z,20.81
2018-06-17T19:42:46.723Z,20.80
2018-06-17T19:45:14.776Z,20.78
2018-06-17T19:47:43.883Z,20.77
2018-06-17T19:50:17.316Z,20.73
2018-06-17T19:52:50.872Z,20.70
2018-06-17T19:55:24.516Z,20.67
2018-06-17T19:57:58.107Z,20.62
2018-06-17T20:00:33.887Z,20.55
2018-06-17T20:03:02.937Z,20.49
2018-06-17T20:05:30.977Z,20.43
2018-06-17T20:07:59.044Z,20.39
2018-06-17T20:10:28.105Z,20.35
2018-06-17T20:12:56.261Z,20.31
2018-06-17T20:15:24.725Z,20.27
2018-06-17T20:17:52.812Z,20.24
2018-06-17T20:20:22.092Z,20.19
2018-06-17T20:22:50.187Z,20.13
2018-06-17T20:25:18.315Z,20.08
2018-06-17T20:27:47.260Z,20.05
2018-06-17T20:30:15.345Z,20.02
2018-06-17T20:32:48.752Z,19.97
2018-06-17T20:35:22.293Z,19.90
2018-06-17T20:37:55.605Z,19.82
2018-06-17T20:41:31.044Z,19.75
2018-06-17T20:43:59.424Z,19.64
2018-06-17T20:46:27.474Z,19.54
2018-06-17T20:48:55.589Z,19.46
2018-06-17T20:51:23.648Z,19.39
2018-06-17T20:53:51.701Z,19.28
2018-06-17T20:56:19.752Z,19.21
2018-06-17T20:58:47.794Z,19.13
2018-06-17T21:01:15.860Z,19.06
2018-06-17T21:03:43.929Z,18.98
2018-06-17T21:06:12.011Z,18.92
2018-06-17T21:08:40.048Z,18.83
2018-06-17T21:11:08.111Z,18.76
2018-06-17T21:13:36.178Z,18.70
2018-06-17T21:16:04.236Z,18.64
2018-06-17T21:18:37.701Z,18.58
2018-06-17T21:21:11.314Z,18.50
2018-06-17T21:23:44.870Z,18.41
2018-06-17T21:26:18.408Z,18.34
2018-06-17T21:28:46.460Z,18.28
2018-06-17T21:31:14.548Z,18.21
2018-06-17T21:33:42.613Z,18.16
2018-06-17T21:36:10.669Z,18.08
2018-06-17T21:38:38.721Z,18.01
2018-06-17T21:41:07.056Z,17.93
2018-06-17T21:43:35.113Z,17.85
2018-06-17T21:46:03.182Z,17.81
2018-06-17T21:48:31.253Z,17.79
2018-06-17T21:50:59.336Z,17.76
2018-06-17T21:53:27.384Z,17.72
2018-06-17T21:55:55.431Z,17.69
2018-06-17T21:58:28.897Z,17.68
2018-06-17T22:00:56.953Z,17.68
2018-06-17T22:03:25.016Z,17.68
2018-06-17T22:05:53.126Z,17.67
2018-06-17T22:08:26.624Z,17.66
2018-06-17T22:11:00.085Z,17.66
2018-06-17T22:13:32.351Z,17.67
2018-06-17T22:16:05.900Z,17.66
2018-06-17T22:18:33.956Z,17.65
2018-06-17T22:21:02.005Z,17.66
2018-06-17T22:23:30.096Z,17.67
2018-06-17T22:25:58.168Z,17.68
2018-06-17T22:28:26.237Z,17.70
2018-06-17T22:30:54.275Z,17.72
2018-06-17T22:33:22.320Z,17.73
2018-06-17T22:35:50.397Z,17.74
2018-06-17T22:38:18.445Z,17.70
2018-06-17T22:40:46.483Z,17.72
2018-06-17T22:43:14.547Z,17.73
2018-06-17T22:45:42.615Z,17.75
2018-06-17T22:48:10.664Z,17.77
2018-06-17T22:50:38.716Z,17.80
2018-06-17T22:53:18.409Z,17.77
2018-06-17T22:55:46.464Z,17.77
2018-06-17T22:58:19.949Z,17.80
2018-06-17T23:00:53.453Z,17.82
2018-06-17T23:03:26.992Z,17.81
2018-06-17T23:06:00.490Z,17.84
2018-06-17T23:08:33.959Z,17.83
2018-06-17T23:11:02.024Z,17.83
2018-06-17T23:13:30.084Z,17.84
2018-06-17T23:15:58.135Z,17.87
2018-06-17T23:18:26.189Z,17.92
2018-06-17T23:20:54.225Z,17.98
2018-06-17T23:23:22.280Z,18.01
2018-06-17T23:25:50.348Z,18.00
2018-06-17T23:28:18.416Z,17.97
2018-06-17T23:30:46.490Z,17.89
2018-06-17T23:33:14.541Z,17.86
2018-06-17T23:35:42.604Z,17.80
2018-06-17T23:38:10.656Z,17.75
2018-06-17T23:40:38.704Z,17.74
2018-06-17T23:43:06.762Z,17.74
2018-06-17T23:45:34.822Z,17.74
2018-06-17T23:48:08.197Z,17.76
2018-06-17T23:50:41.696Z,17.75
2018-06-17T23:53:15.145Z,17.75
2018-06-17T23:55:48.547Z,17.76
2018-06-17T23:58:16.608Z,17.75
